createdAt,value
2018-08-10T00:01:03.315Z,7.90
2018-08-10T00:03:36.418Z,11.77
2018-08-10T00:06:17.627Z,10.20
2018-08-10T00:08:48.656Z,8.83
2018-08-10T00:11:23.159Z,12.40
2018-08-10T00:13:53.212Z,11.23
2018-08-10T00:16:22.198Z,13.33
2018-08-10T00:18:55.414Z,16.63
2018-08-10T00:21:27.038Z,19.70
2018-08-10T00:23:56.697Z,13.07
2018-08-10T00:30:35.089Z,8.33
2018-08-10T00:33:06.773Z,17.00
2018-08-10T00:35:35.799Z,5.73
2018-08-10T00:38:07.257Z,9.27
2018-08-10T00:40:41.681Z,5.50
2018-08-10T00:43:11.800Z,7.17
2018-08-10T00:45:40.767Z,7.10
2018-08-10T00:48:10.702Z,7.90
2018-08-10T00:50:42.459Z,6.20
2018-08-10T00:53:12.912Z,7.93
2018-08-10T00:55:43.551Z,11.33
2018-08-10T00:58:15.191Z,6.60
2018-08-10T01:00:46.542Z,16.47
2018-08-10T01:03:16.765Z,8.50
2018-08-10T01:05:46.812Z,12.97
2018-08-10T01:08:16.984Z,10.53
2018-08-10T01:10:46.525Z,10.07
2018-08-10T01:13:15.819Z,9.50
2018-08-10T01:15:47.112Z,12.27
2018-08-10T01:18:17.945Z,6.87
2018-08-10T01:20:47.463Z,6.80
2018-08-10T01:23:16.794Z,10.70
2018-08-10T01:25:46.230Z,10.43
2018-08-10T01:28:15.715Z,6.90
2018-08-10T01:30:49.784Z,10.80
2018-08-10T01:33:19.094Z,8.90
2018-08-10T01:35:49.754Z,10.93
2018-08-10T01:38:20.804Z,8.67
2018-08-10T01:40:54.346Z,4.40
2018-08-10T01:43:24.373Z,7.40
2018-08-10T01:45:55.299Z,8.07
2018-08-10T01:48:27.687Z,7.60
2018-08-10T01:50:56.490Z,8.10
2018-08-10T01:53:29.749Z,7.83
2018-08-10T01:55:59.453Z,9.87
2018-08-10T01:58:29.073Z,12.23
2018-08-10T02:00:59.143Z,4.73
2018-08-10T02:03:28.913Z,11.70
2018-08-10T02:05:58.941Z,6.80
2018-08-10T02:08:30.193Z,4.07
2018-08-10T02:11:07.582Z,10.13
2018-08-10T02:13:40.965Z,8.57
2018-08-10T02:16:10.055Z,11.97
2018-08-10T02:18:40.287Z,7.37
2018-08-10T02:21:11.867Z,7.53
2018-08-10T02:23:40.745Z,9.77
2018-08-10T02:26:09.925Z,7.33
2018-08-10T02:28:40.510Z,19.63
2018-08-10T02:31:10.993Z,10.70
2018-08-10T02:33:40.065Z,5.43
2018-08-10T02:36:09.635Z,5.77
2018-08-10T02:38:38.530Z,9.23
2018-08-10T02:41:09.242Z,9.83
2018-08-10T02:43:38.476Z,8.47
2018-08-10T02:46:10.508Z,6.90
2018-08-10T02:48:40.070Z,8.00
2018-08-10T02:51:09.259Z,6.33
2018-08-10T02:53:39.485Z,6.43
2018-08-10T02:56:09.868Z,7.63
2018-08-10T02:58:48.299Z,4.57
2018-08-10T03:01:18.705Z,4.17
2018-08-10T03:03:52.983Z,8.10
2018-08-10T03:06:22.022Z,7.70
2018-08-10T03:08:53.626Z,10.07
2018-08-10T03:11:26.197Z,8.63
2018-08-10T03:13:55.352Z,10.93
2018-08-10T03:16:24.521Z,10.47
2018-08-10T03:18:55.616Z,5.20
2018-08-10T03:21:28.530Z,6.00
2018-08-10T03:23:58.896Z,5.13
2018-08-10T03:26:34.387Z,5.60
2018-08-10T03:29:06.578Z,6.80
2018-08-10T03:31:35.971Z,6.77
2018-08-10T03:34:06.687Z,8.73
2018-08-10T03:36:36.293Z,8.90
2018-08-10T03:39:12.578Z,4.70
2018-08-10T03:41:49.950Z,9.80
2018-08-10T03:44:22.272Z,4.20
2018-08-10T03:46:59.702Z,7.87
2018-08-10T03:49:29.636Z,5.70
2018-08-10T03:52:02.716Z,7.13
2018-08-10T03:54:33.543Z,6.40
2018-08-10T03:57:03.522Z,9.27
2018-08-10T03:59:32.927Z,6.07
2018-08-10T04:04:52.297Z,4.77
2018-08-10T04:07:29.323Z,10.00
2018-08-10T04:10:07.929Z,6.70
2018-08-10T04:12:46.345Z,5.93
2018-08-10T04:15:22.527Z,7.60
2018-08-10T04:18:06.513Z,6.40
2018-08-10T04:20:55.394Z,3.17
2018-08-10T04:23:25.568Z,5.50
2018-08-10T04:26:00.657Z,6.40
2018-08-10T04:28:34.334Z,6.00
2018-08-10T04:31:08.685Z,6.33
2018-08-10T04:33:55.398Z,10.73
2018-08-10T04:36:40.262Z,9.03
2018-08-10T04:39:35.924Z,13.13
2018-08-10T04:42:10.187Z,6.67
2018-08-10T04:44:42.443Z,8.73
2018-08-10T04:47:19.882Z,6.77
2018-08-10T04:49:52.578Z,9.43
2018-08-10T04:52:42.308Z,7.03
2018-08-10T04:55:20.995Z,8.97
2018-08-10T05:00:40.411Z,7.27
2018-08-10T05:03:18.450Z,4.80
2018-08-10T05:14:12.724Z,3.23
2018-08-10T05:16:47.958Z,7.17
2018-08-10T05:25:20.787Z,5.90
2018-08-10T05:28:08.812Z,8.50
2018-08-10T05:30:44.766Z,5.00
2018-08-10T05:33:30.726Z,6.13
2018-08-10T05:36:18.029Z,12.87
2018-08-10T05:39:09.056Z,7.87
2018-08-10T05:44:28.191Z,6.83
2018-08-10T05:47:04.385Z,5.70
2018-08-10T05:49:34.469Z,6.63
2018-08-10T05:52:08.056Z,4.50
2018-08-10T05:59:48.676Z,6.87
2018-08-10T06:02:21.042Z,6.07
2018-08-10T06:05:07.671Z,6.00
2018-08-10T06:07:44.571Z,4.97
2018-08-10T06:10:29.253Z,5.20
2018-08-10T06:16:03.140Z,5.67
2018-08-10T06:18:42.023Z,5.80
2018-08-10T06:22:00.133Z,6.40
2018-08-10T06:25:17.034Z,8.40
2018-08-10T06:27:52.879Z,8.10
2018-08-10T06:30:34.558Z,9.57
2018-08-10T06:33:06.340Z,10.90
2018-08-10T06:35:37.537Z,7.00
2018-08-10T06:38:26.598Z,6.90
2018-08-10T06:41:05.002Z,6.20
2018-08-10T06:43:52.331Z,8.67
2018-08-10T06:46:24.579Z,8.53
2018-08-10T06:48:55.509Z,8.83
2018-08-10T06:51:28.151Z,5.90
2018-08-10T06:54:03.190Z,15.67
2018-08-10T06:56:36.722Z,8.67
2018-08-10T06:59:10.157Z,10.80
2018-08-10T07:01:42.319Z,8.67
2018-08-10T07:04:12.999Z,5.83
2018-08-10T07:09:48.703Z,7.43
2018-08-10T07:12:31.884Z,6.73
2018-08-10T07:15:26.887Z,3.60
2018-08-10T07:18:04.226Z,6.70
2018-08-10T07:20:38.770Z,3.60
2018-08-10T07:23:15.811Z,10.70
2018-08-10T07:25:58.115Z,6.23
2018-08-10T07:28:30.965Z,10.87
2018-08-10T07:31:01.789Z,9.13
2018-08-10T07:33:38.134Z,15.33
2018-08-10T07:36:11.654Z,8.40
2018-08-10T07:38:44.489Z,7.67
2018-08-10T07:41:13.207Z,10.53
2018-08-10T07:43:47.743Z,9.47
2018-08-10T07:46:31.395Z,11.47
2018-08-10T07:49:13.101Z,10.63
2018-08-10T07:51:47.402Z,10.67
2018-08-10T07:54:18.318Z,10.27
2018-08-10T07:56:47.748Z,7.63
2018-08-10T07:59:20.873Z,13.87
2018-08-10T08:01:53.575Z,10.13
2018-08-10T08:04:27.604Z,11.57
2018-08-10T08:07:07.664Z,10.37
2018-08-10T08:09:44.718Z,10.70
2018-08-10T08:12:18.715Z,12.17
2018-08-10T08:15:09.005Z,8.63
2018-08-10T08:17:48.917Z,8.40
2018-08-10T08:20:41.246Z,10.53
2018-08-10T08:25:54.595Z,12.60
2018-08-10T08:28:57.089Z,15.53
2018-08-10T08:31:34.700Z,8.67
2018-08-10T08:34:09.644Z,15.27
2018-08-10T08:37:00.996Z,12.40
2018-08-10T08:40:32.537Z,6.07
2018-08-10T09:22:42.092Z,4.37
2018-08-10T09:25:48.921Z,5.57
2018-08-10T09:28:28.276Z,5.83
2018-08-10T09:31:14.354Z,6.53
2018-08-10T09:34:54.814Z,6.40
2018-08-10T09:38:25.640Z,14.57
2018-08-10T09:45:41.942Z,5.07
2018-08-10T09:48:11.221Z,10.10
2018-08-10T09:51:13.726Z,9.00
2018-08-10T09:54:38.836Z,8.07
2018-08-10T09:57:15.887Z,5.93
2018-08-10T09:59:57.503Z,4.57
2018-08-10T10:02:44.951Z,8.93
2018-08-10T10:05:30.285Z,6.57
2018-08-10T10:08:04.088Z,7.63
2018-08-10T10:10:41.594Z,6.53
2018-08-10T10:13:31.481Z,5.70
2018-08-10T10:16:18.379Z,6.87
2018-08-10T10:18:47.615Z,9.17
2018-08-10T10:21:31.685Z,10.97
2018-08-10T10:24:10.478Z,12.27
2018-08-10T10:26:45.024Z,14.97
2018-08-10T10:29:21.807Z,9.50
2018-08-10T10:31:52.022Z,8.23
2018-08-10T10:34:23.338Z,7.30
2018-08-10T10:37:02.120Z,6.40
2018-08-10T10:39:36.525Z,4.30
2018-08-10T10:42:06.720Z,6.53
2018-08-10T10:44:42.439Z,5.73
2018-08-10T10:47:12.435Z,7.43
2018-08-10T10:49:43.321Z,9.90
2018-08-10T10:52:14.077Z,6.13
2018-08-10T10:54:43.494Z,7.33
2018-08-10T10:57:13.225Z,4.43
2018-08-10T10:59:46.724Z,5.23
2018-08-10T11:02:19.532Z,13.93
2018-08-10T11:04:48.873Z,5.97
2018-08-10T11:07:23.202Z,9.33
2018-08-10T11:09:53.600Z,6.67
2018-08-10T11:12:23.556Z,7.17
2018-08-10T11:14:52.122Z,6.63
2018-08-10T11:17:20.900Z,7.10
2018-08-10T11:19:49.557Z,9.83
2018-08-10T11:22:18.249Z,7.70
2018-08-10T11:24:47.067Z,8.03
2018-08-10T11:27:16.007Z,7.83
2018-08-10T11:29:44.993Z,7.10
2018-08-10T11:32:14.663Z,8.93
2018-08-10T11:34:45.643Z,9.77
2018-08-10T11:37:18.067Z,12.00
2018-08-10T11:39:47.158Z,7.70
2018-08-10T11:42:21.976Z,10.50
2018-08-10T11:44:53.538Z,5.70
2018-08-10T11:47:22.494Z,9.97
2018-08-10T11:49:51.382Z,6.83
2018-08-10T11:52:20.311Z,8.27
2018-08-10T11:54:50.227Z,8.00
2018-08-10T11:57:20.530Z,10.30
2018-08-10T11:59:49.284Z,8.67
2018-08-10T12:02:20.558Z,12.37
2018-08-10T12:04:49.659Z,5.90
2018-08-10T12:07:20.115Z,5.63
2018-08-10T12:09:49.341Z,6.37
2018-08-10T12:12:19.125Z,5.47
2018-08-10T12:14:48.766Z,8.07
2018-08-10T12:17:18.482Z,6.37
2018-08-10T12:19:47.197Z,5.20
2018-08-10T12:22:16.466Z,6.90
2018-08-10T12:24:46.357Z,5.53
2018-08-10T12:27:18.161Z,3.30
2018-08-10T12:29:47.258Z,7.33
2018-08-10T12:32:16.639Z,7.10
2018-08-10T12:34:45.910Z,6.90
2018-08-10T12:37:14.684Z,3.57
2018-08-10T12:39:43.440Z,5.37
2018-08-10T12:42:14.057Z,7.73
2018-08-10T12:44:42.760Z,8.83
2018-08-10T12:47:11.399Z,6.70
2018-08-10T12:49:41.076Z,5.67
2018-08-10T12:52:11.783Z,7.80
2018-08-10T12:54:42.723Z,7.40
2018-08-10T12:57:15.030Z,5.80
2018-08-10T12:59:44.179Z,5.53
2018-08-10T13:02:12.922Z,10.67
2018-08-10T13:04:43.493Z,9.67
2018-08-10T13:07:44.271Z,3.43
2018-08-10T13:10:13.968Z,5.83
2018-08-10T13:12:42.686Z,7.67
2018-08-10T13:15:13.132Z,7.87
2018-08-10T13:17:44.678Z,5.10
2018-08-10T13:20:16.567Z,4.83
2018-08-10T13:22:45.566Z,5.60
2018-08-10T13:25:23.896Z,6.47
2018-08-10T13:27:58.178Z,6.60
2018-08-10T13:30:27.558Z,6.67
2018-08-10T13:32:57.654Z,5.23
2018-08-10T13:35:27.662Z,4.80
2018-08-10T13:38:28.126Z,6.93
2018-08-10T13:40:57.843Z,4.93
2018-08-10T13:43:29.054Z,6.23
2018-08-10T13:45:58.082Z,6.87
2018-08-10T13:48:27.680Z,8.90
2018-08-10T13:50:57.656Z,8.43
2018-08-10T13:53:26.597Z,7.13
2018-08-10T13:55:55.894Z,5.80
2018-08-10T13:58:26.096Z,4.73
2018-08-10T14:00:55.534Z,7.20
2018-08-10T14:03:27.251Z,6.83
2018-08-10T14:05:57.667Z,5.20
2018-08-10T14:08:27.383Z,6.87
2018-08-10T14:10:56.780Z,4.73
2018-08-10T14:13:25.609Z,3.43
2018-08-10T14:30:04.973Z,4.27
2018-08-10T14:47:23.270Z,4.43
2018-08-10T14:49:57.158Z,9.87
2018-08-10T14:52:31.946Z,7.33
2018-08-10T14:55:03.779Z,4.23
2018-08-10T14:57:38.879Z,8.27
2018-08-10T15:00:32.259Z,6.37
2018-08-10T15:03:09.160Z,11.03
2018-08-10T15:05:39.280Z,5.60
2018-08-10T15:08:09.345Z,7.97
2018-08-10T15:10:51.226Z,8.03
2018-08-10T15:13:23.541Z,8.30
2018-08-10T15:15:53.606Z,6.07
2018-08-10T15:19:06.241Z,5.90
2018-08-10T15:21:37.431Z,7.27
2018-08-10T15:24:13.567Z,7.70
2018-08-10T15:26:44.600Z,6.13
2018-08-10T15:29:14.014Z,9.10
2018-08-10T15:31:54.413Z,7.13
2018-08-10T15:37:24.204Z,7.63
2018-08-10T15:40:21.247Z,10.53
2018-08-10T15:42:55.526Z,7.90
2018-08-10T15:45:25.818Z,9.93
2018-08-10T15:47:57.627Z,5.07
2018-08-10T15:50:27.252Z,6.83
2018-08-10T15:52:59.926Z,6.43
2018-08-10T15:55:32.950Z,9.63
2018-08-10T15:58:02.589Z,7.67
2018-08-10T16:00:36.106Z,6.57
2018-08-10T16:03:05.977Z,5.87
2018-08-10T16:05:39.496Z,5.10
2018-08-10T16:08:12.124Z,7.30
2018-08-10T16:10:43.043Z,6.47
2018-08-10T16:13:13.622Z,6.57
2018-08-10T16:15:43.370Z,7.50
2018-08-10T16:18:14.727Z,9.70
2018-08-10T16:20:44.854Z,6.40
2018-08-10T16:23:14.168Z,6.57
2018-08-10T16:25:42.946Z,5.87
2018-08-10T16:28:11.517Z,5.30
2018-08-10T16:30:40.077Z,6.40
2018-08-10T16:33:09.617Z,6.30
2018-08-10T16:35:38.280Z,5.93
2018-08-10T16:38:07.370Z,10.20
2018-08-10T16:40:36.209Z,7.17
2018-08-10T16:43:06.256Z,8.00
2018-08-10T16:45:34.944Z,5.73
2018-08-10T16:48:04.075Z,6.97
2018-08-10T16:50:33.170Z,8.97
2018-08-10T16:53:02.021Z,3.70
2018-08-10T16:55:30.820Z,5.20
2018-08-10T16:57:59.496Z,5.63
2018-08-10T17:00:28.965Z,4.10
2018-08-10T17:02:57.697Z,5.17
2018-08-10T17:05:26.868Z,5.70
2018-08-10T17:07:55.721Z,4.63
2018-08-10T17:10:25.317Z,3.27
2018-08-10T17:12:53.981Z,5.70
2018-08-10T17:15:22.561Z,5.20
2018-08-10T17:17:51.221Z,4.27
2018-08-10T17:20:23.549Z,5.67
2018-08-10T17:22:52.148Z,6.03
2018-08-10T17:25:21.126Z,5.87
2018-08-10T17:27:49.670Z,5.93
2018-08-10T17:30:19.517Z,4.60
2018-08-10T17:32:48.845Z,4.80
2018-08-10T17:35:30.617Z,7.47
2018-08-10T17:38:02.311Z,6.40
2018-08-10T17:40:39.402Z,4.40
2018-08-10T17:43:13.833Z,5.33
2018-08-10T17:45:46.864Z,8.43
2018-08-10T17:48:19.600Z,8.77
2018-08-10T17:50:54.861Z,11.40
2018-08-10T17:53:25.799Z,9.57
2018-08-10T17:56:02.220Z,11.43
2018-08-10T17:58:35.059Z,9.80
2018-08-10T18:01:03.997Z,14.93
2018-08-10T18:04:00.785Z,14.17
2018-08-10T18:06:29.489Z,18.67
2018-08-10T18:08:58.474Z,13.23
2018-08-10T18:11:27.323Z,10.47
2018-08-10T18:14:00.046Z,17.00
2018-08-10T18:16:28.745Z,13.87
2018-08-10T18:18:57.530Z,11.73
2018-08-10T18:21:28.977Z,14.47
2018-08-10T18:24:02.122Z,12.43
2018-08-10T18:26:32.142Z,16.43
2018-08-10T18:29:05.780Z,15.40
2018-08-10T18:31:36.072Z,12.23
2018-08-10T18:34:09.779Z,14.00
2018-08-10T18:36:41.803Z,14.17
2018-08-10T18:39:13.756Z,15.10
2018-08-10T18:41:51.397Z,21.70
2018-08-10T18:44:21.568Z,27.07
2018-08-10T18:46:51.306Z,18.73
2018-08-10T18:49:23.658Z,23.03
2018-08-10T18:51:52.429Z,17.87
2018-08-10T18:54:24.021Z,16.63
2018-08-10T18:57:03.408Z,15.63
2018-08-10T18:59:34.301Z,18.80
2018-08-10T19:02:05.868Z,16.83
2018-08-10T19:04:35.562Z,15.10
2018-08-10T19:07:05.368Z,19.10
2018-08-10T19:09:42.700Z,14.90
2018-08-10T19:12:20.719Z,17.90
2018-08-10T19:14:51.280Z,21.47
2018-08-10T19:17:23.245Z,17.67
2018-08-10T19:19:58.029Z,24.20
2018-08-10T19:22:27.639Z,16.93
2018-08-10T19:25:01.088Z,19.83
2018-08-10T19:27:36.636Z,17.37
2018-08-10T19:30:12.046Z,25.10
2018-08-10T19:32:41.601Z,21.03
2018-08-10T19:35:20.812Z,24.00
2018-08-10T19:37:50.798Z,19.90
2018-08-10T19:40:20.896Z,16.63
2018-08-10T19:42:52.448Z,10.50
2018-08-10T19:45:21.964Z,8.40
2018-08-10T19:47:50.711Z,10.10
2018-08-10T19:50:25.904Z,5.37
2018-08-10T19:52:54.638Z,6.57
2018-08-10T19:55:25.011Z,8.27
2018-08-10T19:57:55.721Z,9.33
2018-08-10T20:00:25.424Z,9.07
2018-08-10T20:02:54.444Z,11.43
2018-08-10T20:05:23.458Z,8.63
2018-08-10T20:08:23.407Z,8.07
2018-08-10T20:10:52.702Z,6.47
2018-08-10T20:13:22.399Z,19.97
2018-08-10T20:15:51.840Z,15.93
2018-08-10T20:18:22.030Z,11.27
2018-08-10T20:20:54.033Z,14.97
2018-08-10T20:23:29.325Z,15.67
2018-08-10T20:26:00.786Z,23.37
2018-08-10T20:28:30.795Z,18.97
2018-08-10T20:31:01.242Z,23.43
2018-08-10T20:33:32.425Z,19.57
2018-08-10T20:36:02.936Z,21.83
2018-08-10T20:38:32.056Z,21.20
2018-08-10T20:41:06.614Z,17.83
2018-08-10T20:43:41.950Z,16.83
2018-08-10T20:46:15.455Z,19.50
2018-08-10T20:48:47.440Z,14.87
2018-08-10T20:51:19.116Z,15.23
2018-08-10T20:57:00.057Z,15.27
2018-08-10T20:59:37.495Z,13.40
2018-08-10T21:02:18.429Z,12.60
2018-08-10T21:04:54.918Z,18.77
2018-08-10T21:07:28.322Z,16.27
2018-08-10T21:10:05.985Z,19.40
2018-08-10T21:12:49.866Z,21.27
2018-08-10T21:15:28.905Z,17.93
2018-08-10T21:18:02.362Z,16.93
2018-08-10T21:20:38.800Z,14.80
2018-08-10T21:23:15.721Z,20.50
2018-08-10T21:25:50.769Z,16.80
2018-08-10T21:28:29.378Z,32.47
2018-08-10T21:31:16.193Z,22.53
2018-08-10T21:33:56.454Z,26.60
2018-08-10T21:36:43.434Z,21.47
2018-08-10T21:39:26.463Z,26.37
2018-08-10T21:44:47.744Z,25.83
2018-08-10T21:47:21.963Z,26.33
2018-08-10T21:49:52.571Z,28.80
2018-08-10T21:52:26.619Z,29.20
2018-08-10T21:55:02.746Z,19.20
2018-08-10T21:57:33.802Z,18.73
2018-08-10T22:00:15.202Z,21.03
2018-08-10T22:02:46.692Z,24.17
2018-08-10T22:05:21.835Z,28.43
2018-08-10T22:07:51.557Z,25.10
2018-08-10T22:10:25.941Z,20.10
2018-08-10T22:14:19.550Z,21.20
2018-08-10T22:22:40.389Z,21.80
2018-08-10T22:25:53.921Z,17.50
2018-08-10T22:28:28.526Z,16.10
2018-08-10T22:31:01.063Z,18.70
2018-08-10T22:33:35.690Z,18.67
2018-08-10T22:36:07.001Z,19.47
2018-08-10T22:38:38.879Z,13.47
2018-08-10T22:41:16.565Z,14.10
2018-08-10T22:43:53.735Z,14.77
2018-08-10T22:46:30.803Z,16.33
2018-08-10T22:52:29.007Z,17.07
2018-08-10T22:55:05.381Z,15.63
2018-08-10T22:57:36.038Z,12.47
2018-08-10T23:00:11.216Z,16.03
2018-08-10T23:02:48.553Z,10.20
2018-08-10T23:05:22.324Z,11.33
2018-08-10T23:07:54.787Z,10.00
2018-08-10T23:10:24.730Z,7.97
2018-08-10T23:12:57.380Z,19.47
2018-08-10T23:15:55.185Z,10.33
2018-08-10T23:18:24.652Z,11.47
2018-08-10T23:20:55.300Z,8.13
2018-08-10T23:23:27.366Z,7.87
2018-08-10T23:26:03.977Z,6.90
2018-08-10T23:28:37.126Z,6.23
2018-08-10T23:31:10.442Z,10.37
2018-08-10T23:33:43.973Z,10.17
2018-08-10T23:36:17.656Z,8.10
2018-08-10T23:38:48.993Z,6.37
2018-08-10T23:41:20.180Z,12.77
2018-08-10T23:44:04.463Z,7.37
2018-08-10T23:46:47.333Z,4.20
2018-08-10T23:49:20.691Z,3.70
2018-08-10T23:51:56.178Z,4.87
2018-08-10T23:54:33.084Z,7.07
2018-08-10T23:57:10.107Z,6.57
2018-08-10T23:59:40.947Z,7.03
